Weather at Mudgee Airport

Public forecast

Using degrees Celsius for public forecast. Weather courtesy of forecast.io.

Closest aviation weather report (METAR) to Mudgee Airport

Closest report is Dubbo City Regional Airport, 56.5 nm (104.6 km) WNW.

2024/06/15 03:30 (retrieved 11 minutes ago)

YSDU 150330Z AUTO 13003KT 9999 // SCT023 OVC085 14/07 Q1015

Closest aviation forecast (TAF) to Mudgee Airport

Forecast is more than 12 hours old.

Closest forecast is Koumac Airport, 1,065.3 nm (1,972.9 km) NE.

2024/06/13 18:00 Ammendment (retrieved 1 day ago)

TAF AMD NWWE 131700Z 1318/1418 CNL TAF AMD NWWK 131700Z 1318/1418 CNL